createdAt,value
2022-11-30T00:01:53.025Z,101652.56
2022-11-30T00:04:20.870Z,101651.72
2022-11-30T00:06:48.737Z,101653.41
2022-11-30T00:09:18.253Z,101617.09
2022-11-30T00:11:46.093Z,101645.25
2022-11-30T00:14:13.952Z,101651.34
2022-11-30T00:16:41.898Z,101650.50
2022-11-30T00:19:10.099Z,101641.88
2022-11-30T00:21:37.989Z,101659.50
2022-11-30T00:24:06.773Z,101659.50
2022-11-30T00:26:39.037Z,101662.22
2022-11-30T00:29:06.939Z,101658.66
2022-11-30T00:31:34.802Z,101659.50
2022-11-30T00:34:02.662Z,101653.22
2022-11-30T00:36:30.536Z,101653.22
2022-11-30T00:38:58.394Z,101653.00
2022-11-30T00:41:26.622Z,101644.81
2022-11-30T00:43:55.881Z,101653.84
2022-11-30T00:46:23.824Z,101652.19
2022-11-30T00:48:51.722Z,101653.84
2022-11-30T00:51:20.468Z,101654.06
2022-11-30T00:53:48.773Z,101651.34
2022-11-30T00:56:16.731Z,101641.31
2022-11-30T00:58:45.044Z,101651.13
2022-11-30T01:01:14.622Z,101647.56
2022-11-30T01:03:42.548Z,101637.50
2022-11-30T01:06:10.654Z,101647.31
2022-11-30T01:08:38.669Z,101652.19
2022-11-30T01:11:08.255Z,101651.34
2022-11-30T01:13:36.236Z,101656.78
2022-11-30T01:16:09.815Z,101657.63
2022-11-30T01:18:39.485Z,101651.34
2022-11-30T01:21:08.645Z,101654.06
2022-11-30T01:23:36.558Z,101659.50
2022-11-30T01:26:04.454Z,101656.13
2022-11-30T01:28:32.296Z,101661.78
2022-11-30T01:31:00.924Z,101664.50
2022-11-30T01:33:28.876Z,101656.09
2022-11-30T01:36:02.223Z,101663.03
2022-11-30T01:38:33.172Z,101658.63
2022-11-30T01:41:02.468Z,101664.91
2022-11-30T01:43:40.930Z,101665.75
2022-11-30T01:46:20.103Z,101661.16
2022-11-30T01:48:57.150Z,101654.41
2022-11-30T01:51:26.910Z,101671.81
2022-11-30T01:53:54.897Z,101659.03
2022-11-30T01:56:22.818Z,101654.03
2022-11-30T01:58:50.743Z,101656.31
2022-11-30T02:01:18.883Z,101660.94
2022-11-30T02:03:49.168Z,101654.44
2022-11-30T02:06:17.023Z,101662.63
2022-11-30T02:08:46.343Z,101666.19
2022-11-30T02:11:15.127Z,101662.63
2022-11-30T02:13:58.149Z,101648.16
2022-11-30T02:16:28.736Z,101658.00
2022-11-30T02:19:00.437Z,101650.47
2022-11-30T02:21:31.265Z,101660.72
2022-11-30T02:24:07.888Z,101661.56
2022-11-30T02:26:53.545Z,101657.16
2022-11-30T02:29:22.961Z,101647.09
2022-11-30T02:31:52.605Z,101605.16
2022-11-30T02:34:21.662Z,101651.72
2022-11-30T02:36:49.544Z,101659.88
2022-11-30T02:39:18.126Z,101648.16
2022-11-30T02:41:45.999Z,101642.72
2022-11-30T02:44:13.878Z,101647.31
2022-11-30T02:46:53.991Z,101644.41
2022-11-30T02:49:25.063Z,101647.31
2022-11-30T02:51:52.902Z,101640.00
2022-11-30T02:54:20.780Z,101641.88
2022-11-30T02:56:48.979Z,101637.69
2022-11-30T02:59:17.115Z,101638.09
2022-11-30T03:01:46.429Z,101640.59
2022-11-30T03:04:14.334Z,101643.53
2022-11-30T03:06:42.172Z,101633.66
2022-11-30T03:09:10.361Z,101638.94
2022-11-30T03:11:38.249Z,101638.94
2022-11-30T03:14:06.129Z,101639.75
2022-11-30T03:16:34.430Z,101639.75
2022-11-30T03:19:03.967Z,101639.75
2022-11-30T03:21:31.851Z,101633.47
2022-11-30T03:23:59.787Z,101636.00
2022-11-30T03:26:27.680Z,101642.28
2022-11-30T03:28:55.502Z,101643.34
2022-11-30T03:31:23.491Z,101648.56
2022-11-30T03:33:51.392Z,101648.56
2022-11-30T03:36:20.627Z,101651.09
2022-11-30T03:38:48.699Z,101658.44
2022-11-30T03:41:17.894Z,101655.72
2022-11-30T03:43:45.860Z,101663.88
2022-11-30T03:46:13.812Z,101656.75
2022-11-30T03:48:42.146Z,101660.50
2022-11-30T03:51:10.857Z,101664.91
2022-11-30T03:53:40.233Z,101673.06
2022-11-30T03:56:09.166Z,101672.03
2022-11-30T03:58:37.029Z,101672.88
2022-11-30T04:01:06.341Z,101663.88
2022-11-30T04:03:34.215Z,101673.91
2022-11-30T04:06:02.091Z,101672.88
2022-11-30T04:08:30.027Z,101672.03
2022-11-30T04:11:00.059Z,101674.75
2022-11-30T04:13:28.137Z,101678.50
2022-11-30T04:15:56.174Z,101672.22
2022-11-30T04:18:24.884Z,101672.41
2022-11-30T04:20:53.120Z,101670.72
2022-11-30T04:23:21.370Z,101671.78
2022-11-30T04:25:49.249Z,101660.91
2022-11-30T04:28:18.612Z,101672.84
2022-11-30T04:30:46.907Z,101668.22
2022-11-30T04:33:14.957Z,101665.28
2022-11-30T04:35:42.924Z,101667.38
2022-11-30T04:38:10.832Z,101669.06
2022-11-30T04:40:40.697Z,101658.19
2022-11-30T04:43:08.554Z,101664.66
2022-11-30T04:45:37.873Z,101663.63
2022-11-30T04:48:06.173Z,101665.28
2022-11-30T04:50:34.370Z,101633.56
2022-11-30T04:53:02.284Z,101669.06
2022-11-30T04:55:30.227Z,101673.69
2022-11-30T04:57:58.167Z,101673.69
2022-11-30T05:00:26.416Z,101661.91
2022-11-30T05:02:56.533Z,101676.41
2022-11-30T05:05:24.573Z,101679.97
2022-11-30T05:07:52.709Z,101565.06
2022-11-30T05:10:21.024Z,101681.84
2022-11-30T05:12:50.206Z,101662.88
2022-11-30T05:15:18.234Z,101691.69
2022-11-30T05:17:46.092Z,101699.00
2022-11-30T05:20:15.693Z,101690.84
2022-11-30T05:22:43.597Z,101700.03
2022-11-30T05:25:11.502Z,101699.00
2022-11-30T05:27:39.366Z,101700.88
2022-11-30T05:30:10.969Z,101700.03
2022-11-30T05:32:39.606Z,101683.00
2022-11-30T05:35:07.989Z,101700.88
2022-11-30T05:37:37.602Z,101707.16
2022-11-30T05:40:08.304Z,101703.59
2022-11-30T05:42:36.184Z,101706.31
2022-11-30T05:45:04.254Z,101704.44
2022-11-30T05:47:32.121Z,101707.16
2022-11-30T05:50:00.292Z,101710.72
2022-11-30T05:52:28.226Z,101681.75
2022-11-30T05:54:59.400Z,101708.81
2022-11-30T05:57:27.297Z,101716.16
2022-11-30T05:59:55.448Z,101715.09
2022-11-30T06:02:27.871Z,101710.72
2022-11-30T06:04:56.106Z,101717.81
2022-11-30T06:07:24.031Z,101716.97
2022-11-30T06:09:52.438Z,101711.53
2022-11-30T06:12:21.722Z,101711.34
2022-11-30T06:14:50.806Z,101709.66
2022-11-30T06:17:18.765Z,101708.63
2022-11-30T06:19:46.893Z,101709.47
2022-11-30T06:22:14.943Z,101703.59
2022-11-30T06:24:42.810Z,101709.47
2022-11-30T06:27:10.726Z,101705.72
2022-11-30T06:29:39.973Z,101712.19
2022-11-30T06:32:08.331Z,101707.78
2022-11-30T06:34:36.386Z,101709.47
2022-11-30T06:37:04.295Z,101709.88
2022-11-30T06:40:04.436Z,101713.03
2022-11-30T06:42:20.879Z,101696.88
2022-11-30T06:44:50.246Z,101715.75
2022-11-30T06:47:18.192Z,101719.31
2022-11-30T06:49:46.354Z,101674.34
2022-11-30T06:52:14.225Z,101723.91
2022-11-30T06:54:42.091Z,101723.91
2022-11-30T06:57:09.977Z,101721.19
2022-11-30T06:59:42.214Z,101724.75
2022-11-30T07:02:17.449Z,101730.22
2022-11-30T07:04:47.018Z,101693.03
2022-11-30T07:07:15.258Z,101729.19
2022-11-30T07:09:43.430Z,101732.94
2022-11-30T07:12:11.310Z,101735.66
2022-11-30T07:14:39.238Z,101737.53
2022-11-30T07:17:07.111Z,101742.13
2022-11-30T07:19:36.755Z,101748.41
2022-11-30T07:22:04.595Z,101748.41
2022-11-30T07:24:52.556Z,101756.56
2022-11-30T07:27:20.420Z,101760.13
2022-11-30T07:29:52.496Z,101763.91
2022-11-30T07:32:20.736Z,101755.06
2022-11-30T07:34:50.375Z,101762.00
2022-11-30T07:37:19.449Z,101765.75
2022-11-30T07:39:47.342Z,101768.31
2022-11-30T07:42:17.049Z,101771.88
2022-11-30T07:44:45.133Z,101779.00
2022-11-30T07:47:13.233Z,101779.00
2022-11-30T07:49:41.346Z,101777.31
2022-11-30T07:52:10.648Z,101785.25
2022-11-30T07:54:38.506Z,101780.88
2022-11-30T07:57:06.499Z,101780.88
2022-11-30T07:59:34.737Z,101778.16
2022-11-30T08:02:02.938Z,101786.31
2022-11-30T08:04:30.962Z,101791.09
2022-11-30T08:06:59.112Z,101797.19
2022-11-30T08:09:28.663Z,101794.47
2022-11-30T08:11:56.600Z,101791.75
2022-11-30T08:14:24.488Z,101799.91
2022-11-30T08:16:52.380Z,101800.75
2022-11-30T08:19:20.596Z,101799.91
2022-11-30T08:21:48.490Z,101806.41
2022-11-30T08:24:16.446Z,101805.56
2022-11-30T08:26:45.990Z,101800.94
2022-11-30T08:29:14.182Z,101799.25
2022-11-30T08:31:42.078Z,101797.56
2022-11-30T08:34:11.876Z,101774.47
2022-11-30T08:36:40.028Z,101805.38
2022-11-30T08:39:09.204Z,101806.41
2022-11-30T08:41:39.062Z,101808.28
2022-11-30T08:44:08.463Z,101815.59
2022-11-30T08:46:53.218Z,101805.75
2022-11-30T08:49:23.584Z,101811.00
2022-11-30T08:54:42.751Z,101819.16
2022-11-30T08:57:10.811Z,101823.56
2022-11-30T08:59:40.146Z,101803.81
2022-11-30T09:02:08.246Z,101821.69
2022-11-30T09:04:36.251Z,101821.22
2022-11-30T09:07:04.367Z,101829.63
2022-11-30T09:09:32.734Z,101837.78
2022-11-30T09:12:00.610Z,101835.91
2022-11-30T09:14:28.515Z,101835.06
2022-11-30T09:16:57.782Z,101837.16
2022-11-30T09:19:27.319Z,101835.91
2022-11-30T09:21:55.185Z,101837.78
2022-11-30T09:24:23.127Z,101844.09
2022-11-30T09:26:51.077Z,101841.34
2022-11-30T09:29:19.294Z,101832.75
2022-11-30T09:31:47.200Z,101812.13
2022-11-30T09:34:16.458Z,101845.97
2022-11-30T09:36:44.316Z,101838.00
2022-11-30T09:39:12.822Z,101838.63
2022-11-30T09:41:54.343Z,101833.97
2022-11-30T09:44:24.804Z,101837.78
2022-11-30T09:46:56.751Z,101841.34
2022-11-30T09:49:26.983Z,101839.66
2022-11-30T09:51:56.794Z,101839.66
2022-11-30T09:54:35.527Z,101835.28
2022-11-30T09:57:04.680Z,101838.84
2022-11-30T09:59:33.029Z,101843.47
2022-11-30T10:02:01.106Z,101845.34
2022-11-30T10:04:30.608Z,101835.28
2022-11-30T10:07:04.454Z,101798.28
2022-11-30T10:09:39.905Z,101822.66
2022-11-30T10:12:10.421Z,101840.50
2022-11-30T10:15:00.746Z,101834.22
2022-11-30T10:17:35.897Z,101847.03
2022-11-30T10:20:25.247Z,101794.28
2022-11-30T10:23:01.553Z,101837.75
2022-11-30T10:25:30.930Z,101836.13
2022-11-30T10:28:12.617Z,101822.22
2022-11-30T10:30:49.391Z,101832.56
2022-11-30T10:33:18.511Z,101831.50
2022-11-30T10:35:48.476Z,101831.72
2022-11-30T10:38:18.705Z,101836.94
2022-11-30T10:40:48.967Z,101826.91
2022-11-30T10:43:19.807Z,101825.25
2022-11-30T10:45:49.224Z,101831.50
2022-11-30T10:48:19.063Z,101824.41
2022-11-30T10:50:48.643Z,101826.06
2022-11-30T10:53:16.462Z,101826.91
2022-11-30T10:55:45.739Z,101825.03
2022-11-30T10:58:21.008Z,101822.53
2022-11-30T11:00:56.551Z,101811.16
2022-11-30T11:03:25.487Z,101814.75
2022-11-30T11:06:09.104Z,101817.91
2022-11-30T11:08:36.990Z,101822.53
2022-11-30T11:11:06.205Z,101825.25
2022-11-30T11:13:38.527Z,101826.06
2022-11-30T11:16:07.312Z,101824.41
2022-11-30T11:18:35.389Z,101824.41
2022-11-30T11:21:07.266Z,101737.94
2022-11-30T11:23:37.110Z,101821.69
2022-11-30T11:26:05.253Z,101825.25
2022-11-30T11:28:33.230Z,101820.00
2022-11-30T11:31:01.136Z,101829.84
2022-11-30T11:33:29.584Z,101824.41
2022-11-30T11:36:13.392Z,101823.56
2022-11-30T11:38:44.086Z,101823.56
2022-11-30T11:41:22.533Z,101809.97
2022-11-30T11:44:02.581Z,101820.84
2022-11-30T11:46:31.055Z,101818.31
2022-11-30T11:48:59.768Z,101820.19
2022-11-30T11:51:31.838Z,101822.91
2022-11-30T11:54:02.779Z,101818.97
2022-11-30T11:56:32.477Z,101829.00
2022-11-30T11:59:01.685Z,101825.44
2022-11-30T12:01:40.727Z,101815.53
2022-11-30T12:04:22.828Z,101820.00
2022-11-30T12:06:51.494Z,101826.28
2022-11-30T12:09:23.222Z,101826.06
2022-11-30T12:11:51.237Z,101813.66
2022-11-30T12:14:19.949Z,101826.47
2022-11-30T12:17:03.947Z,101831.50
2022-11-30T12:19:35.407Z,101788.44
2022-11-30T12:22:07.147Z,101796.00
2022-11-30T12:24:42.271Z,101828.78
2022-11-30T12:27:15.859Z,101824.41
2022-11-30T12:29:47.844Z,101821.47
2022-11-30T12:32:21.579Z,101827.97
2022-11-30T12:34:54.552Z,101826.06
2022-11-30T12:37:25.715Z,101827.50
2022-11-30T12:39:58.920Z,101807.13
2022-11-30T12:42:29.388Z,101822.91
2022-11-30T12:44:59.102Z,101833.41
2022-11-30T12:47:34.964Z,101829.84
2022-11-30T12:50:10.075Z,101772.44
2022-11-30T12:52:43.156Z,101835.28
2022-11-30T12:55:18.742Z,101826.47
2022-11-30T12:57:48.656Z,101835.06
2022-11-30T13:00:19.979Z,101828.78
2022-11-30T13:03:32.198Z,101834.44
2022-11-30T13:06:01.456Z,101830.03
2022-11-30T13:08:31.675Z,101811.88
2022-11-30T13:11:02.788Z,101832.09
2022-11-30T13:13:31.258Z,101831.25
2022-11-30T13:15:59.343Z,101840.94
2022-11-30T13:18:27.297Z,101841.75
2022-11-30T13:20:58.643Z,101821.38
2022-11-30T13:23:35.891Z,101841.75
2022-11-30T13:26:09.575Z,101813.22
2022-11-30T13:28:56.170Z,101833.59
2022-11-30T13:31:25.545Z,101839.03
2022-11-30T13:33:58.879Z,101835.28
2022-11-30T13:36:35.716Z,101837.16
2022-11-30T13:39:19.279Z,101834.44
2022-11-30T13:41:49.320Z,101833.59
2022-11-30T13:44:26.713Z,101839.88
2022-11-30T13:46:54.604Z,101827.13
2022-11-30T13:49:23.912Z,101805.00
2022-11-30T13:52:20.072Z,101831.91
2022-11-30T13:54:43.918Z,101736.00
2022-11-30T13:57:53.669Z,101835.28
2022-11-30T14:00:49.117Z,101832.56
2022-11-30T14:03:19.306Z,101839.03
2022-11-30T14:05:47.311Z,101841.59
2022-11-30T14:08:39.477Z,101828.53
2022-11-30T14:11:44.550Z,101838.19
2022-11-30T14:14:46.632Z,101844.50
2022-11-30T14:17:24.240Z,101845.53
2022-11-30T14:19:53.481Z,101841.50
2022-11-30T14:22:21.391Z,101857.25
2022-11-30T14:24:49.402Z,101857.25
2022-11-30T14:27:22.252Z,101854.34
2022-11-30T14:29:53.345Z,101852.66
2022-11-30T14:32:28.756Z,101840.69
2022-11-30T14:35:02.788Z,101841.25
2022-11-30T14:37:33.304Z,101848.00
2022-11-30T14:40:03.147Z,101858.94
2022-11-30T14:42:32.423Z,101866.06
2022-11-30T14:45:00.337Z,101866.88
2022-11-30T14:47:31.223Z,101866.88
2022-11-30T14:50:02.650Z,101865.00
2022-11-30T14:52:50.758Z,101868.78
2022-11-30T14:55:23.672Z,101875.88
2022-11-30T14:57:53.754Z,101858.63
2022-11-30T15:00:22.359Z,101872.31
2022-11-30T15:02:51.658Z,101873.38
2022-11-30T15:05:22.731Z,101874.00
2022-11-30T15:07:51.055Z,101874.00
2022-11-30T15:10:22.059Z,101865.84
2022-11-30T15:12:53.028Z,101868.56
2022-11-30T15:15:21.932Z,101860.41
2022-11-30T15:17:55.453Z,101864.81
2022-11-30T15:20:29.013Z,101870.25
2022-11-30T15:22:58.364Z,101863.13
2022-11-30T15:25:29.934Z,101839.97
2022-11-30T15:27:58.518Z,101867.72
2022-11-30T15:30:27.829Z,101855.31
2022-11-30T15:32:57.147Z,101874.22
2022-11-30T15:35:34.313Z,101880.50
2022-11-30T15:38:16.855Z,101884.47
2022-11-30T15:40:47.751Z,101881.09
2022-11-30T15:43:22.483Z,101885.94
2022-11-30T15:45:54.921Z,101891.38
2022-11-30T15:48:30.350Z,101887.84
2022-11-30T15:50:58.297Z,101886.78
2022-11-30T15:53:28.459Z,101889.50
2022-11-30T15:55:56.882Z,101891.38
2022-11-30T15:58:30.466Z,101886.78
2022-11-30T16:01:05.389Z,101887.84
2022-11-30T16:03:34.977Z,101853.53
2022-11-30T16:06:04.821Z,101889.50
2022-11-30T16:08:32.980Z,101888.66
2022-11-30T16:11:06.289Z,101888.66
2022-11-30T16:13:35.691Z,101895.78
2022-11-30T16:16:03.671Z,101897.66
2022-11-30T16:18:32.082Z,101899.34
2022-11-30T16:21:01.952Z,101899.53
2022-11-30T16:23:30.028Z,101899.53
2022-11-30T16:25:58.138Z,101907.69
2022-11-30T16:28:26.067Z,101904.16
2022-11-30T16:30:59.214Z,101902.47
2022-11-30T16:33:31.153Z,101909.59
2022-11-30T16:36:01.456Z,101905.19
2022-11-30T16:38:29.360Z,101906.03
2022-11-30T16:40:57.561Z,101878.44
2022-11-30T16:43:26.781Z,101900.78
2022-11-30T16:45:54.763Z,101909.78
2022-11-30T16:48:22.716Z,101907.91
2022-11-30T16:50:50.869Z,101909.78
2022-11-30T16:53:22.793Z,101913.34
2022-11-30T16:55:52.782Z,101917.78
2022-11-30T16:58:22.172Z,101916.09
2022-11-30T17:00:52.014Z,101915.41
2022-11-30T17:03:20.995Z,101915.22
2022-11-30T17:05:48.891Z,101922.38
2022-11-30T17:08:17.019Z,101921.53
2022-11-30T17:10:46.848Z,101918.81
2022-11-30T17:13:15.682Z,101928.84
2022-11-30T17:15:43.583Z,101920.22
2022-11-30T17:18:11.721Z,101930.53
2022-11-30T17:20:40.012Z,101929.69
2022-11-30T17:23:08.111Z,101926.97
2022-11-30T17:25:36.052Z,101912.84
2022-11-30T17:28:05.632Z,101934.09
2022-11-30T17:30:33.888Z,101845.44
2022-11-30T17:33:01.829Z,101933.03
2022-11-30T17:35:29.721Z,101933.88
2022-11-30T17:37:57.572Z,101936.59
2022-11-30T17:40:26.037Z,101881.88
2022-11-30T17:42:53.940Z,101941.00
2022-11-30T17:45:23.193Z,101946.63
2022-11-30T17:47:51.136Z,101942.88
2022-11-30T17:50:19.510Z,101944.75
2022-11-30T17:52:47.391Z,101944.75
2022-11-30T17:55:15.542Z,101954.63
2022-11-30T17:57:43.448Z,101949.00
2022-11-30T18:00:12.722Z,101954.63
2022-11-30T18:02:42.063Z,101950.44
2022-11-30T18:05:10.697Z,101963.63
2022-11-30T18:07:38.632Z,101957.16
2022-11-30T18:10:08.196Z,101958.00
2022-11-30T18:12:36.408Z,101963.22
2022-11-30T18:15:04.933Z,101971.22
2022-11-30T18:17:33.354Z,101970.00
2022-11-30T18:20:02.937Z,101963.47
2022-11-30T18:22:32.745Z,101952.09
2022-11-30T18:25:03.547Z,101947.75
2022-11-30T18:31:22.076Z,101954.50
2022-11-30T18:33:55.257Z,101973.69
2022-11-30T18:36:24.754Z,101965.69
2022-11-30T18:38:53.070Z,101968.69
2022-11-30T18:41:22.351Z,101978.56
2022-11-30T18:43:53.310Z,101974.78
2022-11-30T18:46:21.300Z,101968.50
2022-11-30T18:48:50.119Z,101974.78
2022-11-30T18:51:19.223Z,101976.66
2022-11-30T18:53:48.882Z,101978.56
2022-11-30T18:56:17.905Z,101964.69
2022-11-30T18:58:46.426Z,101982.97
2022-11-30T19:01:15.462Z,101974.78
2022-11-30T19:03:43.736Z,101951.56
2022-11-30T19:06:11.888Z,101982.31
2022-11-30T19:08:40.273Z,101967.78
2022-11-30T19:11:10.625Z,101979.81
2022-11-30T19:13:38.539Z,101982.53
2022-11-30T19:16:07.361Z,101945.63
2022-11-30T19:18:35.257Z,101985.63
2022-11-30T19:21:05.410Z,101975.22
2022-11-30T19:23:33.262Z,101985.16
2022-11-30T19:26:01.859Z,101991.81
2022-11-30T19:28:31.325Z,101987.78
2022-11-30T19:30:59.633Z,101988.63
2022-11-30T19:33:27.629Z,101991.53
2022-11-30T19:36:00.891Z,101986.91
2022-11-30T19:38:29.044Z,101991.09
2022-11-30T19:40:56.925Z,101990.44
2022-11-30T19:43:24.788Z,101997.78
2022-11-30T19:45:54.154Z,101996.94
2022-11-30T19:48:22.053Z,101992.53
2022-11-30T19:50:50.292Z,101910.69
2022-11-30T19:53:18.212Z,101995.44
2022-11-30T19:55:46.062Z,101995.63
2022-11-30T19:58:13.956Z,102001.91
2022-11-30T20:00:42.138Z,102004.63
2022-11-30T20:03:11.374Z,102008.38
2022-11-30T20:05:39.361Z,102012.78
2022-11-30T20:08:07.587Z,102008.38
2022-11-30T20:10:35.859Z,102009.44
2022-11-30T20:13:03.788Z,102007.75
2022-11-30T20:15:31.656Z,102014.03
2022-11-30T20:17:59.511Z,102014.88
2022-11-30T20:20:29.141Z,102013.19
2022-11-30T20:22:56.976Z,102000.16
2022-11-30T20:25:25.071Z,102012.34
2022-11-30T20:27:52.976Z,102009.38
2022-11-30T20:30:21.435Z,102006.06
2022-11-30T20:32:49.325Z,102008.13
2022-11-30T20:35:17.519Z,102008.97
2022-11-30T20:37:46.901Z,102006.25
2022-11-30T20:40:14.869Z,102002.69
2022-11-30T20:42:42.805Z,102015.25
2022-11-30T20:45:11.101Z,102017.13
2022-11-30T20:47:38.945Z,102016.09
2022-11-30T20:50:08.382Z,101994.66
2022-11-30T20:52:36.317Z,102006.47
2022-11-30T20:55:05.991Z,102015.25
2022-11-30T20:57:33.982Z,102017.97
2022-11-30T21:00:02.402Z,101996.53
2022-11-30T21:02:30.360Z,102017.13
2022-11-30T21:04:58.371Z,102012.75
2022-11-30T21:07:26.276Z,102017.97
2022-11-30T21:09:55.494Z,102019.84
2022-11-30T21:12:24.740Z,102003.00
2022-11-30T21:14:52.565Z,102020.91
2022-11-30T21:17:20.524Z,102011.06
2022-11-30T21:19:49.849Z,101979.81
2022-11-30T21:22:18.629Z,102001.53
2022-11-30T21:24:47.118Z,102008.66
2022-11-30T21:27:15.289Z,102027.16
2022-11-30T21:29:44.974Z,102025.28
2022-11-30T21:32:13.009Z,102027.16
2022-11-30T21:34:42.290Z,102012.66
2022-11-30T21:37:10.133Z,102022.56
2022-11-30T21:39:38.442Z,102013.97
2022-11-30T21:42:06.475Z,102014.41
2022-11-30T21:44:34.516Z,102018.19
2022-11-30T21:47:03.795Z,102018.19
2022-11-30T21:49:32.093Z,102017.13
2022-11-30T21:51:59.936Z,102025.28
2022-11-30T21:54:27.852Z,102017.13
2022-11-30T21:56:55.756Z,102016.28
2022-11-30T21:59:23.903Z,102014.41
2022-11-30T22:01:51.793Z,102013.56
2022-11-30T22:04:21.110Z,102014.41
2022-11-30T22:06:49.019Z,102011.91
2022-11-30T22:09:17.759Z,102000.53
2022-11-30T22:11:46.123Z,102011.69
2022-11-30T22:14:15.704Z,102010.84
2022-11-30T22:16:43.687Z,102006.81
2022-11-30T22:19:12.199Z,102011.91
2022-11-30T22:21:46.704Z,101997.19
2022-11-30T22:24:17.836Z,102012.75
2022-11-30T22:26:46.116Z,102013.56
2022-11-30T22:29:15.400Z,102008.34
2022-11-30T22:31:44.421Z,102020.06
2022-11-30T22:34:12.573Z,102014.63
2022-11-30T22:36:42.556Z,102017.34
2022-11-30T22:39:12.513Z,102021.09
2022-11-30T22:41:40.681Z,102015.38
2022-11-30T22:44:08.652Z,102025.50
2022-11-30T22:46:37.164Z,102017.34
2022-11-30T22:49:06.597Z,102021.72
2022-11-30T22:51:35.579Z,102020.91
2022-11-30T22:54:05.405Z,102019.22
2022-11-30T22:56:33.873Z,102023.63
2022-11-30T22:59:02.191Z,102016.50
2022-11-30T23:01:31.291Z,102019.00
2022-11-30T23:04:02.459Z,101973.69
2022-11-30T23:06:30.362Z,102029.06
2022-11-30T23:08:59.257Z,102027.16
2022-11-30T23:11:29.072Z,102031.78
2022-11-30T23:13:56.941Z,102020.91
2022-11-30T23:16:25.088Z,102025.28
2022-11-30T23:18:54.028Z,102023.41
2022-11-30T23:21:23.645Z,102025.09
2022-11-30T23:23:51.599Z,102024.25
2022-11-30T23:26:20.924Z,102005.22
2022-11-30T23:28:51.003Z,102017.97
2022-11-30T23:31:34.080Z,102005.81
2022-11-30T23:34:05.103Z,102023.22
2022-11-30T23:36:33.171Z,102021.34
2022-11-30T23:39:02.054Z,101927.59
2022-11-30T23:41:30.279Z,101975.66
2022-11-30T23:43:59.535Z,102024.06
2022-11-30T23:46:27.461Z,102023.06
2022-11-30T23:48:55.966Z,102018.63
2022-11-30T23:51:23.982Z,102017.78
2022-11-30T23:53:51.927Z,102019.22
2022-11-30T23:56:20.320Z,102015.06
2022-11-30T23:58:48.246Z,102015.06
